^^
Saratoga-Weather Station Historical Data
Daily Summary for May 13, 2021 Units:  English    Metric   Both
Daily Weekly Monthly Yearly Custom
  High: Low: Average:
Temperature: 60.3 °F 43.9 °F 51.6 °F
Dew Point: 49.6 °F 41 °F 45 °F
Humidity: 93% 54% 79%
Wind Speed: 10.1mph 0mph 1.6mph
Wind Gust: 13mph - -
Wind- - West
Pressure: 29.8 in 29.7 in -
Precipitation: 0.02 in    
Historical Graphs
 
 
Tabular Data for May 13, 2021
Time Temperature Dew Point Pressure Wind Wind Speed Wind Gust Humidity Rainfall Rate (Hourly) solar
00:02 48 °F 42.4 °F 29.8 in Calm     81% 0 in 0 W/m2
00:07 47.8 °F 42.3 °F 29.8 in Calm   1 mph 81% 0 in 0 W/m2
00:12 47.8 °F 42.3 °F 29.8 in Calm   1 mph 81% 0 in 0 W/m2
00:17 47.7 °F 42.1 °F 29.8 in Calm   1 mph 81% 0 in 0 W/m2
00:22 47.5 °F 42.3 °F 29.8 in Calm     82% 0 in 0 W/m2
00:27 47.1 °F 41.9 °F 29.8 in Calm   1 mph 82% 0 in 0 W/m2
00:32 46.9 °F 41.7 °F 29.8 in Calm     82% 0 in 0 W/m2
00:37 46.9 °F 42.1 °F 29.8 in Calm     83% 0 in 0 W/m2
00:42 46.8 °F 41.9 °F 29.8 in Calm   1 mph 83% 0 in 0 W/m2
00:47 46.6 °F 41.7 °F 29.8 in Calm     83% 0 in 0 W/m2
00:52 46.6 °F 41.7 °F 29.8 in Calm   1 mph 83% 0 in 0 W/m2
00:57 46.2 °F 41.4 °F 29.8 in Calm     83% 0 in 0 W/m2
01:02 46.2 °F 41.7 °F 29.8 in Calm     84% 0 in 0 W/m2
01:07 46.2 °F 41.7 °F 29.8 in Calm     84% 0 in 0 W/m2
01:12 46 °F 41.5 °F 29.8 in Calm     84% 0 in 0 W/m2
01:17 46 °F 41.7 °F 29.8 in Calm     85% 0 in 0 W/m2
01:22 45.9 °F 41.5 °F 29.8 in Calm     85% 0 in 0 W/m2
01:27 45.9 °F 41.5 °F 29.8 in Calm     85% 0 in 0 W/m2
01:32 45.7 °F 41.4 °F 29.8 in Calm     85% 0 in 0 W/m2
01:37 45.5 °F 41.5 °F 29.8 in Calm     86% 0 in 0 W/m2
01:42 45.5 °F 41.5 °F 29.8 in Calm     86% 0 in 0 W/m2
01:47 45.3 °F 41.4 °F 29.8 in Calm     86% 0 in 0 W/m2
01:52 45.3 °F 41.4 °F 29.8 in Calm     86% 0 in 0 W/m2
01:57 45.3 °F 41.7 °F 29.8 in Calm     87% 0 in 0 W/m2
02:02 45.1 °F 41.2 °F 29.8 in Calm     86% 0 in 0 W/m2
02:07 45.1 °F 41.2 °F 29.8 in Calm     86% 0 in 0 W/m2
02:12 45 °F 41.4 °F 29.8 in Calm     87% 0 in 0 W/m2
02:17 45 °F 41.4 °F 29.8 in Calm     87% 0 in 0 W/m2
02:22 44.8 °F 41.2 °F 29.8 in Calm     87% 0 in 0 W/m2
02:27 44.6 °F 41 °F 29.8 in Calm     87% 0 in 0 W/m2
02:32 44.6 °F 41.2 °F 29.8 in Calm     88% 0 in 0 W/m2
02:37 44.4 °F 41.2 °F 29.8 in Calm     88% 0 in 0 W/m2
02:42 44.4 °F 41.4 °F 29.8 in Calm     89% 0 in 0 W/m2
02:47 44.4 °F 41.4 °F 29.8 in Calm     89% 0 in 0 W/m2
02:52 44.2 °F 41.2 °F 29.8 in Calm     89% 0 in 0 W/m2
02:57 44.2 °F 41.2 °F 29.8 in Calm     89% 0 in 0 W/m2
03:02 44.2 °F 41.5 °F 29.8 in Calm     90% 0 in 0 W/m2
03:07 44.2 °F 41.5 °F 29.8 in Calm     90% 0 in 0 W/m2
03:12 44.2 °F 41.5 °F 29.8 in Calm     90% 0 in 0 W/m2
03:17 44.2 °F 41.7 °F 29.8 in Calm     91% 0 in 0 W/m2
03:22 44.1 °F 41.5 °F 29.8 in Calm     91% 0 in 0 W/m2
03:27 44.1 °F 41.5 °F 29.8 in Calm     91% 0 in 0 W/m2
03:32 43.9 °F 41.4 °F 29.8 in Calm     91% 0 in 0 W/m2
03:37 43.9 °F 41.4 °F 29.8 in Calm     91% 0 in 0 W/m2
03:43 43.9 °F 41.7 °F 29.8 in Calm     92% 0 in 0 W/m2
03:48 43.9 °F 41.7 °F 29.8 in Calm     92% 0 in 0 W/m2
03:53 43.9 °F 41.7 °F 29.8 in Calm     92% 0 in 0 W/m2
03:58 44.1 °F 41.9 °F 29.8 in Calm     92% 0 in 0 W/m2
04:03 44.1 °F 41.9 °F 29.8 in Calm     92% 0 in 0 W/m2
04:08 43.9 °F 41.7 °F 29.8 in Calm     92% 0 in 0 W/m2
04:13 43.9 °F 41.7 °F 29.8 in Calm     92% 0 in 0 W/m2
04:18 43.9 °F 41.7 °F 29.8 in Calm     92% 0 in 0 W/m2
04:23 43.9 °F 41.7 °F 29.8 in Calm     92% 0 in 0 W/m2
04:28 43.9 °F 41.7 °F 29.8 in Calm     92% 0 in 0 W/m2
04:33 43.9 °F 41.7 °F 29.8 in Calm     92% 0 in 0 W/m2
04:38 43.9 °F 41.9 °F 29.8 in Calm     93% 0 in 0 W/m2
04:43 44.1 °F 42.1 °F 29.8 in Calm     93% 0 in 0 W/m2
04:48 44.1 °F 42.1 °F 29.8 in Calm     93% 0 in 0 W/m2
04:53 44.2 °F 42.3 °F 29.8 in Calm     93% 0 in 0 W/m2
04:58 44.2 °F 42.3 °F 29.8 in Calm     93% 0 in 0 W/m2
05:03 44.2 °F 42.3 °F 29.8 in Calm     93% 0 in 0 W/m2
05:08 44.2 °F 42.3 °F 29.8 in Calm     93% 0 in 0 W/m2
05:13 44.2 °F 42.3 °F 29.8 in Calm     93% 0 in 0 W/m2
05:18 44.2 °F 42.3 °F 29.8 in Calm     93% 0 in 0 W/m2
05:23 44.2 °F 42.3 °F 29.8 in Calm     93% 0 in 0 W/m2
05:28 44.4 °F 42.4 °F 29.8 in Calm     93% 0 in 0 W/m2
05:33 44.6 °F 42.6 °F 29.8 in Calm     93% 0 in 0 W/m2
05:38 44.8 °F 42.8 °F 29.8 in Calm     93% 0 in 0 W/m2
05:43 44.8 °F 42.8 °F 29.8 in Calm     93% 0 in 0 W/m2
05:48 45 °F 43 °F 29.7 in Calm     93% 0 in 0 W/m2
05:53 45 °F 42.8 °F 29.8 in Calm     92% 0 in 0 W/m2
05:58 45 °F 42.8 °F 29.8 in Calm     92% 0 in 0 W/m2
06:03 45.1 °F 43 °F 29.8 in Calm     92% 0 in 0 W/m2
06:08 45.1 °F 43 °F 29.8 in Calm     92% 0 in 7 W/m2
06:13 45.1 °F 43 °F 29.8 in West 0.9 mph 1 mph 92% 0 in 11 W/m2
06:18 45.1 °F 42.6 °F 29.8 in Calm   1 mph 91% 0 in 14 W/m2
06:23 45.1 °F 42.6 °F 29.8 in WNW 2 mph 2 mph 91% 0 in 18 W/m2
06:28 45.1 °F 42.6 °F 29.8 in Calm   2 mph 91% 0 in 19 W/m2
06:33 45.1 °F 42.6 °F 29.8 in Calm     91% 0 in 21 W/m2
06:38 45.1 °F 42.6 °F 29.8 in Calm   2 mph 91% 0 in 26 W/m2
06:43 45.3 °F 42.8 °F 29.8 in Calm     91% 0 in 28 W/m2
06:48 45.3 °F 42.8 °F 29.8 in Calm     91% 0 in 32 W/m2
06:53 45.5 °F 43 °F 29.8 in Calm     91% 0 in 32 W/m2
06:58 45.7 °F 43.2 °F 29.8 in Calm     91% 0 in 30 W/m2
07:03 45.9 °F 43.3 °F 29.7 in Calm     91% 0 in 28 W/m2
07:08 45.9 °F 43.3 °F 29.8 in WNW 0.9 mph 1 mph 91% 0 in 33 W/m2
07:13 46 °F 43.3 °F 29.8 in Calm   2 mph 90% 0 in 39 W/m2
07:18 46 °F 43.3 °F 29.7 in Calm     90% 0 in 39 W/m2
07:23 46 °F 43 °F 29.8 in Calm   2 mph 89% 0 in 39 W/m2
07:28 46.2 °F 43.2 °F 29.7 in Calm     89% 0 in 40 W/m2
07:33 46.2 °F 43.2 °F 29.7 in Calm     89% 0 in 44 W/m2
07:38 46.4 °F 43 °F 29.7 in Calm     88% 0 in 56 W/m2
07:43 46.6 °F 43.2 °F 29.7 in Calm   1 mph 88% 0 in 70 W/m2
07:48 46.8 °F 43.3 °F 29.7 in Calm     88% 0 in 70 W/m2
07:53 46.8 °F 43.3 °F 29.7 in Calm     88% 0 in 76 W/m2
07:58 46.9 °F 43.3 °F 29.7 in Calm     87% 0 in 79 W/m2
08:03 47.3 °F 43.7 °F 29.7 in Calm   2 mph 87% 0 in 77 W/m2
08:08 47.5 °F 43.9 °F 29.7 in Calm   1 mph 87% 0 in 84 W/m2
08:13 47.7 °F 44.1 °F 29.7 in Calm     87% 0 in 100 W/m2
08:18 48 °F 44.4 °F 29.7 in Calm     87% 0 in 114 W/m2
08:23 48.7 °F 45 °F 29.7 in Calm     87% 0 in 120 W/m2
08:28 49.6 °F 45.7 °F 29.7 in WNW 0.9 mph 2 mph 86% 0 in 121 W/m2
08:33 50.7 °F 46 °F 29.7 in East 2 mph 3 mph 84% 0 in 127 W/m2
08:38 52 °F 46.4 °F 29.7 in ENE 2 mph 4 mph 81% 0 in 134 W/m2
08:43 52.3 °F 46.4 °F 29.7 in NE 0.9 mph 3 mph 80% 0 in 144 W/m2
08:48 52.5 °F 46.2 °F 29.7 in ENE 2 mph 3 mph 79% 0 in 234 W/m2
08:53 52.5 °F 46.6 °F 29.7 in ENE 2 mph 3 mph 80% 0 in 193 W/m2
08:58 52.9 °F 46.9 °F 29.7 in ESE 0.9 mph 3 mph 80% 0 in 434 W/m2
09:03 53.1 °F 47.1 °F 29.7 in East 2 mph 3 mph 80% 0 in 299 W/m2
09:08 53.4 °F 47.5 °F 29.7 in NE 4 mph 4 mph 80% 0 in 587 W/m2
09:13 53.8 °F 47.8 °F 29.7 in ESE 0.9 mph 3 mph 80% 0 in 399 W/m2
09:18 53.6 °F 47.3 °F 29.7 in NE 2 mph 3 mph 79% 0 in 318 W/m2
09:23 53.8 °F 47.8 °F 29.7 in NNE 2 mph 3 mph 80% 0 in 348 W/m2
09:28 54 °F 48 °F 29.7 in East 2 mph 4 mph 80% 0 in 221 W/m2
09:33 54.1 °F 48 °F 29.7 in NE 2 mph 3 mph 80% 0 in 211 W/m2
09:38 54.1 °F 48 °F 29.7 in ESE 2 mph 5 mph 80% 0 in 211 W/m2
09:43 54.1 °F 48 °F 29.7 in East 0.9 mph 2 mph 80% 0 in 223 W/m2
09:48 54.3 °F 48.2 °F 29.7 in Calm   3 mph 80% 0 in 288 W/m2
09:53 54.9 °F 48.7 °F 29.7 in ENE 2 mph 4 mph 80% 0 in 283 W/m2
09:58 55.2 °F 48.7 °F 29.7 in Calm   2 mph 79% 0 in 199 W/m2
10:03 55.4 °F 48.7 °F 29.7 in NNW 0.9 mph 4 mph 78% 0 in 169 W/m2
10:08 55.6 °F 48.6 °F 29.7 in North 0.9 mph 2 mph 77% 0 in 144 W/m2
10:13 55.8 °F 48 °F 29.7 in WSW 2.9 mph 9 mph 75% 0 in 229 W/m2
10:18 55.8 °F 48 °F 29.7 in NW 0.9 mph 4 mph 75% 0 in 241 W/m2
10:23 55.8 °F 48 °F 29.7 in Calm   9 mph 75% 0 in 195 W/m2
10:29 55.8 °F 48 °F 29.7 in ENE 0.9 mph 3 mph 75% 0 in 144 W/m2
10:34 55.8 °F 48.4 °F 29.7 in WNW 4.9 mph 6 mph 76% 0 in 123 W/m2
10:39 55.6 °F 48.6 °F 29.7 in WNW 2.9 mph 7 mph 77% 0 in 165 W/m2
10:44 55.4 °F 48.4 °F 29.8 in NW 2.9 mph 6 mph 77% 0 in 221 W/m2
10:49 55.4 °F 48.7 °F 29.8 in WNW 2.9 mph 4 mph 78% 0 in 192 W/m2
10:54 55.4 °F 48.7 °F 29.8 in West 2 mph 4 mph 78% 0 in 144 W/m2
10:59 55.2 °F 48.7 °F 29.8 in NW 2 mph 4 mph 79% 0 in 132 W/m2
11:04 55 °F 48.6 °F 29.8 in WNW 2.9 mph 8 mph 79% 0 in 111 W/m2
11:09 54.9 °F 48.6 °F 29.8 in West 0.9 mph 7 mph 79% 0 in 135 W/m2
11:14 54.9 °F 48.7 °F 29.8 in WNW 2.9 mph 8 mph 80% 0 in 199 W/m2
11:19 54.9 °F 48.7 °F 29.8 in WNW 2 mph 2 mph 80% 0 in 246 W/m2
11:24 55 °F 48.6 °F 29.8 in Calm   10 mph 79% 0 in 301 W/m2
11:29 55.4 °F 48.9 °F 29.8 in WSW 6.9 mph 8 mph 79% 0 in 287 W/m2
11:34 55.4 °F 48.4 °F 29.8 in West 8.1 mph 9 mph 77% 0 in 176 W/m2
11:39 55 °F 48.4 °F 29.8 in SSE 2.9 mph 4 mph 78% 0 in 160 W/m2
11:44 55 °F 48.4 °F 29.8 in SSE 0.9 mph 3 mph 78% 0 in 181 W/m2
11:49 54.7 °F 47.7 °F 29.8 in WNW 4.9 mph 10 mph 77% 0 in 223 W/m2
11:54 54.3 °F 47.3 °F 29.8 in NW 2.9 mph 10 mph 77% 0 in 264 W/m2
11:59 54.3 °F 47.7 °F 29.8 in West 0.9 mph 6 mph 78% 0 in 297 W/m2
12:04 54.1 °F 47.5 °F 29.8 in West 6 mph 13 mph 78% 0 in 316 W/m2
12:09 54 °F 48 °F 29.8 in WSW 4 mph 6 mph 80% 0 in 306 W/m2
12:14 54 °F 48 °F 29.8 in NW 4 mph 13 mph 80% 0 in 127 W/m2
12:19 53.4 °F 47.7 °F 29.8 in NW 6.9 mph 9 mph 81% 0 in 97 W/m2
12:24 53.1 °F 47.7 °F 29.8 in WNW 8.9 mph 9 mph 82% 0 in 102 W/m2
12:29 52.7 °F 48 °F 29.8 in WNW 2.9 mph 7 mph 84% 0 in 114 W/m2
12:34 52.5 °F 48.2 °F 29.8 in West 2.9 mph 8 mph 85% 0 in 141 W/m2
12:39 52.2 °F 48 °F 29.8 in NW 2.9 mph 9 mph 86% 0 in 193 W/m2
12:44 52.3 °F 48.9 °F 29.8 in NW 4 mph 4 mph 88% 0.01 in 271 W/m2
12:49 52.3 °F 48.9 °F 29.8 in NW 4 mph 8 mph 88% 0.01 in 279 W/m2
12:54 52.5 °F 49.5 °F 29.8 in NW 2.9 mph 5 mph 89% 0.01 in 244 W/m2
12:59 52.9 °F 49.6 °F 29.8 in NW 2 mph 8 mph 89% 0.01 in 171 W/m2
13:04 52.9 °F 49.6 °F 29.8 in WNW 6.9 mph 7 mph 89% 0.01 in 174 W/m2
13:09 52.3 °F 48.9 °F 29.8 in West 6 mph 10 mph 88% 0.01 in 188 W/m2
13:14 52.2 °F 48.7 °F 29.8 in WSW 4.9 mph 7 mph 88% 0.01 in 255 W/m2
13:19 51.8 °F 48.4 °F 29.8 in West 6 mph 11 mph 88% 0.01 in 253 W/m2
13:24 51.8 °F 48.7 °F 29.8 in West 6 mph 8 mph 89% 0.01 in 230 W/m2
13:29 52 °F 48.9 °F 29.8 in West 6.9 mph 8 mph 89% 0.01 in 193 W/m2
13:34 51.8 °F 48.7 °F 29.8 in WNW 0.9 mph 8 mph 89% 0.01 in 183 W/m2
13:39 51.8 °F 48.4 °F 29.8 in West 8.1 mph 9 mph 88% 0.01 in 200 W/m2
13:44 51.8 °F 48 °F 29.8 in NW 2 mph 11 mph 87% 0 in 207 W/m2
13:49 51.6 °F 48.2 °F 29.8 in WNW 4.9 mph 10 mph 88% 0 in 225 W/m2
13:54 51.6 °F 48.2 °F 29.8 in WSW 4 mph 7 mph 88% 0 in 221 W/m2
13:59 51.8 °F 48.4 °F 29.8 in NW 4.9 mph 8 mph 88% 0 in 236 W/m2
14:04 52 °F 48.2 °F 29.8 in West 6.9 mph 8 mph 87% 0 in 234 W/m2
14:09 52 °F 48.2 °F 29.8 in West 2.9 mph 9 mph 87% 0 in 308 W/m2
14:14 52.3 °F 48.6 °F 29.8 in West 4 mph 7 mph 87% 0.01 in 424 W/m2
14:19 52.7 °F 48.9 °F 29.8 in NNW 0.9 mph 9 mph 87% 0.01 in 392 W/m2
14:24 53.2 °F 48.9 °F 29.8 in NW 4.9 mph 8 mph 85% 0.01 in 550 W/m2
14:29 53.4 °F 49.1 °F 29.8 in WSW 4 mph 8 mph 85% 0.01 in 643 W/m2
14:34 54 °F 49.3 °F 29.8 in West 2 mph 4 mph 84% 0.01 in 779 W/m2
14:39 54.1 °F 48.4 °F 29.8 in WNW 10.1 mph 10 mph 81% 0.01 in 605 W/m2
14:44 54.3 °F 48.6 °F 29.8 in WSW 2 mph 8 mph 81% 0.01 in 563 W/m2
14:49 55 °F 49.3 °F 29.8 in WNW 4 mph 7 mph 81% 0.01 in 1076 W/m2
14:54 55.2 °F 47.8 °F 29.8 in WNW 6 mph 7 mph 76% 0.01 in 223 W/m2
14:59 54.9 °F 47.5 °F 29.8 in WNW 4 mph 13 mph 76% 0.01 in 257 W/m2
15:04 54.9 °F 48.2 °F 29.8 in NW 2.9 mph 4 mph 78% 0.01 in 427 W/m2
15:09 55 °F 48.4 °F 29.8 in West 2.9 mph 13 mph 78% 0.01 in 905 W/m2
15:14 55.9 °F 48.2 °F 29.8 in WSW 4 mph 10 mph 75% 0 in 1028 W/m2
15:19 56.8 °F 48.2 °F 29.8 in North 0.9 mph 7 mph 73% 0 in 977 W/m2
15:24 57.4 °F 47.7 °F 29.8 in WSW 4 mph 8 mph 70% 0 in 902 W/m2
15:29 57 °F 46.9 °F 29.7 in West 2.9 mph 8 mph 69% 0 in 209 W/m2
15:34 57.4 °F 46.9 °F 29.7 in Calm   4 mph 68% 0 in 605 W/m2
15:39 57.6 °F 47.1 °F 29.7 in Calm   5 mph 68% 0 in 413 W/m2
15:44 57.7 °F 47.3 °F 29.7 in NNW 6 mph 8 mph 68% 0 in 624 W/m2
15:49 57.6 °F 46.2 °F 29.7 in West 6 mph 9 mph 66% 0 in 461 W/m2
15:54 57.4 °F 46 °F 29.7 in Calm   3 mph 66% 0 in 406 W/m2
15:59 57.4 °F 46 °F 29.7 in WNW 2.9 mph 8 mph 66% 0 in 130 W/m2
16:04 56.8 °F 46 °F 29.7 in WSW 2.9 mph 7 mph 67% 0 in 171 W/m2
16:09 57.2 °F 46.8 °F 29.7 in WNW 2.9 mph 4 mph 68% 0 in 378 W/m2
16:14 57.4 °F 46 °F 29.7 in Calm   4 mph 66% 0 in 202 W/m2
16:19 57.6 °F 46.2 °F 29.7 in SW 6 mph 7 mph 66% 0 in 174 W/m2
16:24 57.7 °F 46.4 °F 29.7 in NW 0.9 mph 3 mph 66% 0 in 591 W/m2
16:29 58.5 °F 45.1 °F 29.7 in NW 2 mph 6 mph 61% 0 in 283 W/m2
16:34 59.2 °F 45.3 °F 29.7 in WNW 8.1 mph 8 mph 60% 0 in 833 W/m2
16:39 59.7 °F 44.1 °F 29.7 in West 2.9 mph 7 mph 56% 0 in 721 W/m2
16:44 60.3 °F 44.1 °F 29.7 in NW 4 mph 8 mph 55% 0 in 320 W/m2
16:49 60.1 °F 44.4 °F 29.7 in WNW 4 mph 4 mph 56% 0 in 146 W/m2
16:54 59.4 °F 43.7 °F 29.7 in WSW 0.9 mph 5 mph 56% 0 in 179 W/m2
16:59 59.4 °F 42.8 °F 29.7 in WNW 6.9 mph 10 mph 54% 0 in 754 W/m2
17:04 59.4 °F 43.2 °F 29.7 in WNW 4 mph 13 mph 55% 0 in 204 W/m2
17:09 59.5 °F 43.3 °F 29.7 in NW 6.9 mph 10 mph 55% 0 in 568 W/m2
17:14 59.7 °F 43 °F 29.7 in WNW 4 mph 8 mph 54% 0 in 698 W/m2
17:19 59.7 °F 43.5 °F 29.7 in WSW 2 mph 9 mph 55% 0 in 751 W/m2
17:24 59.9 °F 43.7 °F 29.7 in North 6 mph 8 mph 55% 0 in 373 W/m2
17:29 59.4 °F 43.7 °F 29.7 in WNW 4.9 mph 7 mph 56% 0 in 204 W/m2
17:34 58.8 °F 43.2 °F 29.7 in West 6 mph 8 mph 56% 0 in 348 W/m2
17:39 58.8 °F 43.2 °F 29.7 in West 2.9 mph 4 mph 56% 0 in 178 W/m2
17:44 58.8 °F 43.7 °F 29.7 in WNW 4 mph 6 mph 57% 0 in 461 W/m2
17:49 58.8 °F 43.7 °F 29.7 in West 2 mph 6 mph 57% 0 in 251 W/m2
17:54 59.2 °F 43.9 °F 29.7 in WNW 4.9 mph 9 mph 57% 0 in 606 W/m2
17:59 59.4 °F 44.6 °F 29.7 in WNW 0.9 mph 4 mph 58% 0 in 214 W/m2
18:04 59.9 °F 44.6 °F 29.7 in Calm   9 mph 57% 0 in 561 W/m2
18:09 60.1 °F 44.8 °F 29.7 in North 0.9 mph 6 mph 57% 0 in 128 W/m2
18:14 59.7 °F 44.4 °F 29.7 in West 2 mph 9 mph 57% 0 in 142 W/m2
18:19 59.2 °F 44.4 °F 29.7 in West 0.9 mph 6 mph 58% 0 in 171 W/m2
18:24 58.8 °F 44.6 °F 29.7 in WNW 2.9 mph 7 mph 59% 0 in 181 W/m2
18:29 58.6 °F 44.4 °F 29.7 in West 2 mph 6 mph 59% 0 in 169 W/m2
18:34 58.5 °F 44.6 °F 29.7 in WNW 2 mph 6 mph 60% 0 in 169 W/m2
18:39 58.6 °F 44.8 °F 29.7 in West 6.9 mph 7 mph 60% 0 in 160 W/m2
18:44 58.5 °F 44.6 °F 29.7 in West 2.9 mph 4 mph 60% 0 in 144 W/m2
18:49 58.5 °F 45.1 °F 29.7 in West 4 mph 4 mph 61% 0 in 128 W/m2
18:54 58.5 °F 45.1 °F 29.7 in SW 0.9 mph 6 mph 61% 0 in 142 W/m2
18:59 58.3 °F 44.4 °F 29.7 in NNW 0.9 mph 7 mph 60% 0 in 137 W/m2
19:04 58.3 °F 45 °F 29.7 in WNW 2.9 mph 4 mph 61% 0 in 135 W/m2
19:09 58.3 °F 45 °F 29.7 in West 2 mph 4 mph 61% 0 in 156 W/m2
19:14 58.3 °F 45 °F 29.7 in NW 2.9 mph 3 mph 61% 0 in 141 W/m2
19:19 58.3 °F 45 °F 29.7 in NW 2.9 mph 3 mph 61% 0 in 88 W/m2
19:24 58.1 °F 44.2 °F 29.7 in West 2 mph 5 mph 60% 0 in 70 W/m2
19:29 57.9 °F 44.6 °F 29.7 in NW 0.9 mph 4 mph 61% 0 in 74 W/m2
19:34 57.7 °F 44.8 °F 29.7 in WNW 2 mph 2 mph 62% 0 in 86 W/m2
19:39 57.6 °F 44.6 °F 29.7 in West 2 mph 4 mph 62% 0 in 79 W/m2
19:44 57.6 °F 45.1 °F 29.7 in NW 2.9 mph 4 mph 63% 0 in 72 W/m2
19:49 57.4 °F 45.3 °F 29.7 in West 0.9 mph 2 mph 64% 0 in 67 W/m2
19:54 57.4 °F 45.3 °F 29.7 in WNW 2 mph 3 mph 64% 0 in 63 W/m2
19:59 57.4 °F 45.7 °F 29.7 in WNW 0.9 mph 2 mph 65% 0 in 69 W/m2
20:04 57.4 °F 45.7 °F 29.7 in WNW 0.9 mph 3 mph 65% 0 in 58 W/m2
20:09 57.4 °F 45.7 °F 29.7 in Calm     65% 0 in 46 W/m2
20:14 57.4 °F 46 °F 29.7 in Calm     66% 0 in 40 W/m2
20:20 57.2 °F 46.8 °F 29.7 in Calm   1 mph 68% 0 in 33 W/m2
20:25 56.8 °F 47.1 °F 29.7 in Calm   1 mph 70% 0 in 28 W/m2
20:30 56.7 °F 46.9 °F 29.7 in Calm   1 mph 70% 0 in 21 W/m2
20:35 56.1 °F 46.8 °F 29.7 in WNW 0.9 mph 1 mph 71% 0 in 18 W/m2
20:40 55.8 °F 46 °F 29.7 in Calm   1 mph 70% 0 in 14 W/m2
20:45 55.2 °F 46.4 °F 29.7 in WNW 0.9 mph 1 mph 72% 0 in 11 W/m2
20:50 54.9 °F 46 °F 29.7 in WNW 0.9 mph 2 mph 72% 0 in 11 W/m2
20:55 54.1 °F 45.7 °F 29.7 in WNW 0.9 mph 2 mph 73% 0 in 9 W/m2
21:00 53.8 °F 45.7 °F 29.7 in WNW 0.9 mph 1 mph 74% 0 in 7 W/m2
21:05 53.2 °F 45.5 °F 29.7 in WNW 0.9 mph 1 mph 75% 0 in 5 W/m2
21:10 52.9 °F 45.5 °F 29.7 in Calm   1 mph 76% 0 in 5 W/m2
21:15 52.5 °F 45.5 °F 29.7 in Calm   1 mph 77% 0 in 0 W/m2
21:20 52.3 °F 45.3 °F 29.7 in WNW 0.9 mph 2 mph 77% 0 in 0 W/m2
21:25 52 °F 45.3 °F 29.7 in WNW 0.9 mph 1 mph 78% 0 in 0 W/m2
21:30 51.6 °F 45 °F 29.7 in WNW 2 mph 2 mph 78% 0 in 0 W/m2
21:35 51.4 °F 44.8 °F 29.7 in Calm   1 mph 78% 0 in 0 W/m2
21:40 51.4 °F 45.1 °F 29.7 in WNW 0.9 mph 2 mph 79% 0 in 0 W/m2
21:45 51.3 °F 45 °F 29.7 in WNW 0.9 mph 1 mph 79% 0 in 0 W/m2
21:50 51.1 °F 45.1 °F 29.7 in Calm   2 mph 80% 0 in 0 W/m2
21:55 50.7 °F 44.8 °F 29.7 in WNW 0.9 mph 2 mph 80% 0 in 0 W/m2
22:00 50.7 °F 45.1 °F 29.7 in WNW 0.9 mph 1 mph 81% 0 in 0 W/m2
22:05 50.7 °F 45.1 °F 29.7 in WNW 2 mph 3 mph 81% 0 in 0 W/m2
22:10 51.1 °F 45.1 °F 29.8 in West 0.9 mph 3 mph 80% 0 in 0 W/m2
22:15 51.4 °F 45.5 °F 29.7 in West 0.9 mph 2 mph 80% 0 in 0 W/m2
22:20 52 °F 45.7 °F 29.8 in West 0.9 mph 2 mph 79% 0 in 0 W/m2
22:25 52.3 °F 46 °F 29.8 in West 2.9 mph 3 mph 79% 0 in 0 W/m2
22:30 52.5 °F 46.2 °F 29.8 in Calm   2 mph 79% 0 in 0 W/m2
22:35 52.7 °F 46.4 °F 29.7 in Calm   4 mph 79% 0 in 0 W/m2
22:40 52.7 °F 46.4 °F 29.7 in Calm     79% 0 in 0 W/m2
22:45 52.7 °F 46.4 °F 29.7 in Calm   3 mph 79% 0 in 0 W/m2
22:50 52.7 °F 46 °F 29.7 in Calm     78% 0 in 0 W/m2
22:55 52.5 °F 46.2 °F 29.7 in Calm     79% 0 in 0 W/m2
23:00 52.5 °F 46.2 °F 29.7 in Calm     79% 0 in 0 W/m2
23:05 52.2 °F 46.2 °F 29.7 in Calm     80% 0 in 0 W/m2
23:10 52 °F 46.4 °F 29.7 in Calm     81% 0 in 0 W/m2
23:15 51.6 °F 46 °F 29.7 in Calm     81% 0 in 0 W/m2
23:20 51.4 °F 46.2 °F 29.7 in Calm   2 mph 82% 0 in 0 W/m2
23:25 51.3 °F 46 °F 29.7 in NNE 2 mph 2 mph 82% 0 in 0 W/m2
23:30 51.1 °F 45.9 °F 29.7 in Calm   1 mph 82% 0 in 0 W/m2
23:35 51.1 °F 45.9 °F 29.7 in Calm   1 mph 82% 0 in 0 W/m2
23:40 50.7 °F 45.7 °F 29.7 in Calm   2 mph 83% 0 in 0 W/m2
23:45 50.5 °F 45.5 °F 29.7 in Calm     83% 0 in 0 W/m2
23:50 50.4 °F 45.3 °F 29.7 in Calm     83% 0 in 0 W/m2
23:55 49.8 °F 45.1 °F 29.8 in Calm     84% 0 in 0 W/m2
Juneau County Weather
Compliments of Weather Underground - 4 mb